sensor_id;sensor_type;location;lat;lon;timestamp;pressure;altitude;pressure_sealevel;temperature;humidity
13612;BME280;6877;51.436;6.774;2022-09-09T16:14:28;100496.53;;;15.29;93.54
13612;BME280;6877;51.436;6.774;2022-09-09T16:17:53;100495.63;;;15.28;93.07
13612;BME280;6877;51.436;6.774;2022-09-09T16:31:57;100495.44;;;15.53;93.33
13612;BME280;6877;51.436;6.774;2022-09-09T16:35:29;100491.81;;;15.56;93.05
13612;BME280;6877;51.436;6.774;2022-09-09T16:38:13;100493.63;;;15.56;93.36
13612;BME280;6877;51.436;6.774;2022-09-09T16:40:59;100492.81;;;15.53;93.90
13612;BME280;6877;51.436;6.774;2022-09-09T16:43:40;100485.56;;;15.59;93.51
13612;BME280;6877;51.436;6.774;2022-09-09T16:46:30;100483.59;;;15.64;94.64
13612;BME280;6877;51.436;6.774;2022-09-09T16:49:00;100483.38;;;15.70;93.37
13612;BME280;6877;51.436;6.774;2022-09-09T16:51:57;100479.00;;;15.69;93.32
13612;BME280;6877;51.436;6.774;2022-09-09T16:54:31;100487.00;;;15.67;92.93
13612;BME280;6877;51.436;6.774;2022-09-09T16:57:06;100485.19;;;15.68;93.25
13612;BME280;6877;51.436;6.774;2022-09-09T16:59:46;100489.53;;;15.69;93.61
13612;BME280;6877;51.436;6.774;2022-09-09T17:05:40;100505.09;;;15.75;92.69
13612;BME280;6877;51.436;6.774;2022-09-09T17:08:13;100496.34;;;15.74;92.92
13612;BME280;6877;51.436;6.774;2022-09-09T17:10:41;100490.47;;;15.68;93.57
13612;BME280;6877;51.436;6.774;2022-09-09T17:13:23;100490.59;;;15.65;93.87
13612;BME280;6877;51.436;6.774;2022-09-09T17:15:58;100494.19;;;15.62;93.05
13612;BME280;6877;51.436;6.774;2022-09-09T17:18:30;100496.13;;;15.59;92.81
13612;BME280;6877;51.436;6.774;2022-09-09T17:21:25;100503.22;;;15.57;93.19
13612;BME280;6877;51.436;6.774;2022-09-09T17:28:04;100508.19;;;15.44;93.17
13612;BME280;6877;51.436;6.774;2022-09-09T17:30:37;100507.44;;;15.40;93.71
13612;BME280;6877;51.436;6.774;2022-09-09T17:33:04;100507.56;;;15.37;93.68
13612;BME280;6877;51.436;6.774;2022-09-09T17:35:44;100509.56;;;15.32;94.18
13612;BME280;6877;51.436;6.774;2022-09-09T17:39:04;100510.59;;;15.28;94.71
13612;BME280;6877;51.436;6.774;2022-09-09T17:41:40;100511.66;;;15.24;94.95
13612;BME280;6877;51.436;6.774;2022-09-09T17:48:09;100512.63;;;15.21;94.83
13612;BME280;6877;51.436;6.774;2022-09-09T17:50:43;100520.50;;;15.23;94.93
13612;BME280;6877;51.436;6.774;2022-09-09T17:54:07;100516.00;;;15.25;94.60
13612;BME280;6877;51.436;6.774;2022-09-09T17:57:54;100519.50;;;15.25;94.48
13612;BME280;6877;51.436;6.774;2022-09-09T18:00:45;100522.34;;;15.21;95.01
13612;BME280;6877;51.436;6.774;2022-09-09T18:03:59;100531.22;;;15.18;95.18
13612;BME280;6877;51.436;6.774;2022-09-09T18:13:35;100534.19;;;15.11;95.61
13612;BME280;6877;51.436;6.774;2022-09-09T18:16:39;100522.84;;;15.09;95.82
13612;BME280;6877;51.436;6.774;2022-09-09T18:19:08;100526.56;;;15.03;96.08
13612;BME280;6877;51.436;6.774;2022-09-09T18:22:20;100525.97;;;14.96;96.27
13612;BME280;6877;51.436;6.774;2022-09-09T18:25:06;100529.66;;;14.92;96.41
13612;BME280;6877;51.436;6.774;2022-09-09T18:27:38;100530.69;;;14.88;96.63
13612;BME280;6877;51.436;6.774;2022-09-09T18:30:10;100536.75;;;14.90;96.58
13612;BME280;6877;51.436;6.774;2022-09-09T18:32:42;100539.25;;;14.93;96.66
13612;BME280;6877;51.436;6.774;2022-09-09T18:35:15;100537.66;;;14.89;97.17
13612;BME280;6877;51.436;6.774;2022-09-09T18:38:13;100544.66;;;14.90;97.63
13612;BME280;6877;51.436;6.774;2022-09-09T18:40:58;100547.03;;;14.96;97.55
13612;BME280;6877;51.436;6.774;2022-09-09T18:43:53;100549.44;;;15.02;97.72
13612;BME280;6877;51.436;6.774;2022-09-09T18:46:37;100554.41;;;15.10;97.27
13612;BME280;6877;51.436;6.774;2022-09-09T18:49:25;100562.03;;;15.16;96.98
13612;BME280;6877;51.436;6.774;2022-09-09T18:51:57;100568.72;;;15.25;96.47
13612;BME280;6877;51.436;6.774;2022-09-09T18:54:29;100567.69;;;15.29;96.40
13612;BME280;6877;51.436;6.774;2022-09-09T18:57:03;100569.28;;;15.33;96.28
13612;BME280;6877;51.436;6.774;2022-09-09T18:59:36;100581.16;;;15.43;95.28
13612;BME280;6877;51.436;6.774;2022-09-09T19:02:08;100581.03;;;15.46;94.32
13612;BME280;6877;51.436;6.774;2022-09-09T19:04:54;100576.59;;;15.47;93.80
13612;BME280;6877;51.436;6.774;2022-09-09T19:07:47;100578.22;;;15.51;91.98
13612;BME280;6877;51.436;6.774;2022-09-09T19:10:19;100587.16;;;15.47;91.85
13612;BME280;6877;51.436;6.774;2022-09-09T19:12:55;100590.41;;;15.32;93.51
13612;BME280;6877;51.436;6.774;2022-09-09T19:15:37;100597.84;;;15.22;94.02
13612;BME280;6877;51.436;6.774;2022-09-09T19:18:42;100605.25;;;15.12;95.34
13612;BME280;6877;51.436;6.774;2022-09-09T19:21:21;100601.28;;;15.02;95.97
13612;BME280;6877;51.436;6.774;2022-09-09T19:24:16;100607.59;;;14.98;96.17
13612;BME280;6877;51.436;6.774;2022-09-09T19:26:46;100611.31;;;14.92;96.52
13612;BME280;6877;51.436;6.774;2022-09-09T19:29:23;100610.59;;;14.89;96.50
13612;BME280;6877;51.436;6.774;2022-09-09T19:31:57;100612.59;;;14.82;96.62
13612;BME280;6877;51.436;6.774;2022-09-09T19:34:41;100600.44;;;14.78;96.21
13612;BME280;6877;51.436;6.774;2022-09-09T19:37:11;100615.63;;;14.71;97.09
13612;BME280;6877;51.436;6.774;2022-09-09T19:46:13;100616.28;;;14.54;97.83
13612;BME280;6877;51.436;6.774;2022-09-09T19:49:23;100621.72;;;14.48;98.44
13612;BME280;6877;51.436;6.774;2022-09-09T19:52:04;100618.47;;;14.42;98.65
13612;BME280;6877;51.436;6.774;2022-09-09T19:54:36;100621.13;;;14.40;99.15
13612;BME280;6877;51.436;6.774;2022-09-09T19:57:12;100623.66;;;14.43;99.81
13612;BME280;6877;51.436;6.774;2022-09-09T19:59:39;100622.91;;;14.40;99.89
13612;BME280;6877;51.436;6.774;2022-09-09T20:02:20;100622.88;;;14.41;99.90
13612;BME280;6877;51.436;6.774;2022-09-09T20:05:14;100621.84;;;14.45;100.00
13612;BME280;6877;51.436;6.774;2022-09-09T20:07:54;100625.19;;;14.50;100.00
13612;BME280;6877;51.436;6.774;2022-09-09T20:10:21;100628.63;;;14.52;100.00
13612;BME280;6877;51.436;6.774;2022-09-09T20:12:53;100625.88;;;14.55;100.00
13612;BME280;6877;51.436;6.774;2022-09-09T20:15:28;100632.81;;;14.58;100.00
13612;BME280;6877;51.436;6.774;2022-09-09T20:17:57;100633.75;;;14.57;100.00
13612;BME280;6877;51.436;6.774;2022-09-09T20:20:48;100638.94;;;14.58;100.00
13612;BME280;6877;51.436;6.774;2022-09-09T20:23:23;100636.38;;;14.57;100.00
13612;BME280;6877;51.436;6.774;2022-09-09T20:26:00;100649.47;;;14.58;100.00
13612;BME280;6877;51.436;6.774;2022-09-09T20:32:32;100646.47;;;14.69;99.40
13612;BME280;6877;51.436;6.774;2022-09-09T20:49:47;100656.91;;;14.71;98.07
13612;BME280;6877;51.436;6.774;2022-09-09T20:56:42;100656.34;;;14.63;98.74
13612;BME280;6877;51.436;6.774;2022-09-09T21:03:04;100657.25;;;14.62;99.13
13612;BME280;6877;51.436;6.774;2022-09-09T21:06:11;100654.63;;;14.62;99.21
13612;BME280;6877;51.436;6.774;2022-09-09T21:09:10;100657.38;;;14.58;99.54
13612;BME280;6877;51.436;6.774;2022-09-09T21:11:54;100660.97;;;14.56;97.66
13612;BME280;6877;51.436;6.774;2022-09-09T21:14:26;100655.88;;;14.51;98.50
13612;BME280;6877;51.436;6.774;2022-09-09T21:17:31;100656.81;;;14.49;97.78
13612;BME280;6877;51.436;6.774;2022-09-09T21:20:06;100656.00;;;14.47;98.03
13612;BME280;6877;51.436;6.774;2022-09-09T21:22:45;100663.97;;;14.45;98.38
13612;BME280;6877;51.436;6.774;2022-09-09T21:25:17;100653.53;;;14.42;98.57
13612;BME280;6877;51.436;6.774;2022-09-09T21:27:50;100660.69;;;14.38;98.38
13612;BME280;6877;51.436;6.774;2022-09-09T21:30:52;100652.09;;;14.33;98.45
13612;BME280;6877;51.436;6.774;2022-09-09T21:43:34;100657.00;;;14.19;99.90
13612;BME280;6877;51.436;6.774;2022-09-09T21:46:16;100652.50;;;14.23;99.96
13612;BME280;6877;51.436;6.774;2022-09-09T21:48:48;100663.69;;;14.28;99.99
13612;BME280;6877;51.436;6.774;2022-09-09T21:54:10;100662.59;;;14.35;99.80
13612;BME280;6877;51.436;6.774;2022-09-09T21:56:48;100665.16;;;14.36;99.78
13612;BME280;6877;51.436;6.774;2022-09-09T21:59:24;100665.91;;;14.40;99.31
13612;BME280;6877;51.436;6.774;2022-09-09T22:01:56;100667.41;;;14.47;99.24
13612;BME280;6877;51.436;6.774;2022-09-09T22:04:28;100668.94;;;14.54;99.07
13612;BME280;6877;51.436;6.774;2022-09-09T22:07:09;100664.41;;;14.58;98.82
13612;BME280;6877;51.436;6.774;2022-09-09T22:10:53;100665.84;;;14.67;98.16
13612;BME280;6877;51.436;6.774;2022-09-09T22:14:02;100662.31;;;14.68;98.39
13612;BME280;6877;51.436;6.774;2022-09-09T22:16:47;100662.38;;;14.66;98.79
13612;BME280;6877;51.436;6.774;2022-09-09T22:22:42;100659.44;;;14.49;98.92
13612;BME280;6877;51.436;6.774;2022-09-09T22:25:14;100649.34;;;14.36;99.09
13612;BME280;6877;51.436;6.774;2022-09-09T22:28:35;100660.09;;;14.30;99.59
13612;BME280;6877;51.436;6.774;2022-09-09T22:30:46;100653.28;;;14.25;99.61
13612;BME280;6877;51.436;6.774;2022-09-09T22:33:27;100655.22;;;14.20;99.83
13612;BME280;6877;51.436;6.774;2022-09-09T22:35:59;100657.22;;;14.13;100.00
13612;BME280;6877;51.436;6.774;2022-09-09T22:38:41;100656.34;;;14.12;99.78
13612;BME280;6877;51.436;6.774;2022-09-09T22:41:18;100650.28;;;14.10;99.76
13612;BME280;6877;51.436;6.774;2022-09-09T22:44:00;100653.00;;;14.07;99.95
13612;BME280;6877;51.436;6.774;2022-09-09T22:46:32;100648.88;;;14.00;100.00
13612;BME280;6877;51.436;6.774;2022-09-09T22:49:04;100654.34;;;13.94;100.00
13612;BME280;6877;51.436;6.774;2022-09-09T22:51:36;100650.97;;;13.90;100.00
13612;BME280;6877;51.436;6.774;2022-09-09T22:54:13;100652.78;;;13.88;100.00
13612;BME280;6877;51.436;6.774;2022-09-09T23:00:33;100650.09;;;13.90;100.00
13612;BME280;6877;51.436;6.774;2022-09-09T23:09:59;100665.00;;;13.89;99.60
13612;BME280;6877;51.436;6.774;2022-09-09T23:13:00;100665.88;;;13.90;99.67
13612;BME280;6877;51.436;6.774;2022-09-09T23:16:16;100658.97;;;13.87;100.00
13612;BME280;6877;51.436;6.774;2022-09-09T23:18:49;100658.91;;;13.89;99.83
13612;BME280;6877;51.436;6.774;2022-09-09T23:21:38;100662.25;;;13.94;99.17
13612;BME280;6877;51.436;6.774;2022-09-09T23:24:20;100665.66;;;13.96;99.29
13612;BME280;6877;51.436;6.774;2022-09-09T23:27:08;100669.00;;;14.01;98.89
13612;BME280;6877;51.436;6.774;2022-09-09T23:29:40;100667.94;;;14.07;98.47
13612;BME280;6877;51.436;6.774;2022-09-09T23:32:06;100673.97;;;14.10;98.39
13612;BME280;6877;51.436;6.774;2022-09-09T23:34:38;100670.41;;;14.11;98.45
13612;BME280;6877;51.436;6.774;2022-09-09T23:37:11;100673.97;;;14.10;98.42
13612;BME280;6877;51.436;6.774;2022-09-09T23:39:38;100679.97;;;14.14;97.79
13612;BME280;6877;51.436;6.774;2022-09-09T23:42:40;100684.28;;;14.17;97.20
13612;BME280;6877;51.436;6.774;2022-09-09T23:48:32;100687.56;;;14.23;96.94
13612;BME280;6877;51.436;6.774;2022-09-09T23:51:37;100689.13;;;14.29;96.49
13612;BME280;6877;51.436;6.774;2022-09-09T23:54:57;100691.53;;;14.35;95.69
